createdAt,value
2023-03-23T15:58:24.467Z,32.49
2023-03-23T16:00:54.359Z,32.94
2023-03-23T16:03:27.665Z,32.90
2023-03-23T16:05:57.607Z,33.18
2023-03-23T16:08:26.250Z,33.08
2023-03-23T16:10:54.660Z,33.57
2023-03-23T16:13:26.700Z,33.59
2023-03-23T16:15:56.528Z,33.78
2023-03-23T16:18:24.888Z,33.77
2023-03-23T16:20:55.773Z,34.06
2023-03-23T16:23:24.278Z,34.21
2023-03-23T16:25:52.666Z,34.51
2023-03-23T16:28:21.192Z,34.46
2023-03-23T16:30:50.085Z,34.01
2023-03-23T16:33:20.079Z,34.34
2023-03-23T16:35:48.468Z,34.40
2023-03-23T16:38:18.724Z,34.51
2023-03-23T16:40:48.504Z,34.77
2023-03-23T16:43:16.941Z,34.57
2023-03-23T16:45:47.333Z,34.62
2023-03-23T16:48:17.674Z,35.27
2023-03-23T16:50:47.618Z,35.10
2023-03-23T16:53:16.313Z,34.80
2023-03-23T16:55:48.481Z,35.10
2023-03-23T16:58:18.167Z,34.93
2023-03-23T17:00:49.987Z,35.07
2023-03-23T17:03:19.707Z,34.97
2023-03-23T17:05:52.336Z,34.88
2023-03-23T17:08:22.021Z,35.08
2023-03-23T17:10:50.564Z,35.10
2023-03-23T17:13:19.037Z,35.00
2023-03-23T17:15:48.105Z,34.83
2023-03-23T17:18:17.140Z,35.31
2023-03-23T17:20:45.702Z,35.01
2023-03-23T17:23:17.144Z,35.14
2023-03-23T17:25:47.910Z,34.93
2023-03-23T17:28:18.116Z,35.07
2023-03-23T17:30:48.514Z,34.67
2023-03-23T17:33:17.138Z,34.96
2023-03-23T17:35:51.868Z,34.81
2023-03-23T17:38:21.956Z,34.97
2023-03-23T17:40:57.555Z,34.89
2023-03-23T17:43:25.831Z,35.21
2023-03-23T17:45:54.379Z,35.34
2023-03-23T17:48:23.360Z,35.26
2023-03-23T17:50:57.608Z,35.74
2023-03-23T17:53:27.938Z,35.48
2023-03-23T17:55:56.950Z,35.75
2023-03-23T17:58:26.479Z,36.01
2023-03-23T18:00:55.536Z,35.75
2023-03-23T18:03:24.983Z,35.97
2023-03-23T18:05:59.494Z,35.64
2023-03-23T18:08:29.859Z,35.96
2023-03-23T18:10:59.539Z,35.93
2023-03-23T18:13:35.134Z,35.71
2023-03-23T18:16:05.187Z,35.88
2023-03-23T18:18:34.126Z,35.65
2023-03-23T18:21:06.230Z,35.65
2023-03-23T18:23:45.942Z,35.98
2023-03-23T18:26:19.044Z,36.18
2023-03-23T18:28:47.430Z,35.85
2023-03-23T18:31:17.657Z,36.00
2023-03-23T18:33:49.516Z,36.14
2023-03-23T18:36:23.865Z,35.88
2023-03-23T18:38:57.435Z,35.64
2023-03-23T18:41:26.943Z,35.58
2023-03-23T18:43:57.504Z,35.93
2023-03-23T18:46:26.496Z,35.82
2023-03-23T18:48:57.577Z,35.68
2023-03-23T18:51:26.220Z,36.06
2023-03-23T18:53:55.935Z,35.63
2023-03-23T18:56:24.400Z,35.81
2023-03-23T18:58:54.291Z,35.80
2023-03-23T19:01:22.706Z,36.13
2023-03-23T19:03:51.113Z,36.22
2023-03-23T19:06:22.669Z,36.24
2023-03-23T19:08:53.490Z,36.08
2023-03-23T19:11:25.906Z,36.43
2023-03-23T19:14:02.622Z,36.38
2023-03-23T19:16:36.334Z,36.35
2023-03-23T19:19:07.794Z,36.19
2023-03-23T19:21:37.576Z,36.22
2023-03-23T19:24:07.574Z,36.42
2023-03-23T19:26:40.027Z,36.69
2023-03-23T19:31:44.809Z,36.75
2023-03-23T19:34:15.603Z,37.03
2023-03-23T19:36:50.269Z,36.66
2023-03-23T19:39:23.187Z,36.67
2023-03-23T19:41:52.967Z,36.57
2023-03-23T19:44:21.231Z,36.76
2023-03-23T19:46:49.957Z,36.73
2023-03-23T19:49:18.438Z,37.27
2023-03-23T19:51:46.783Z,36.67
2023-03-23T19:54:15.371Z,36.48
2023-03-23T19:56:44.214Z,36.64
2023-03-23T19:59:16.393Z,36.84
2023-03-23T20:01:45.507Z,36.93
2023-03-23T20:04:14.146Z,36.50
2023-03-23T20:06:42.473Z,36.74
2023-03-23T20:09:10.820Z,36.52
2023-03-23T20:11:39.098Z,37.00
2023-03-23T20:14:07.731Z,36.95
2023-03-23T20:16:37.417Z,36.67
2023-03-23T20:19:06.094Z,36.92
2023-03-23T20:21:34.548Z,37.05
2023-03-23T20:24:02.864Z,36.85
2023-03-23T20:26:35.965Z,36.86
2023-03-23T20:29:05.101Z,37.16
2023-03-23T20:31:37.602Z,37.07
2023-03-23T20:34:14.247Z,37.10
2023-03-23T20:36:45.339Z,37.42
2023-03-23T20:39:16.093Z,37.34
2023-03-23T20:41:44.548Z,37.58
2023-03-23T20:44:15.612Z,37.46
2023-03-23T20:46:46.943Z,37.58
2023-03-23T20:49:15.933Z,37.71
2023-03-23T20:51:44.814Z,37.88
2023-03-23T20:54:15.775Z,37.73
2023-03-23T20:56:44.803Z,37.78
2023-03-23T20:59:14.488Z,37.88
2023-03-23T21:01:43.762Z,38.23
2023-03-23T21:04:18.081Z,38.00
2023-03-23T21:06:49.722Z,38.15
2023-03-23T21:09:21.829Z,38.22
2023-03-23T21:11:50.607Z,38.24
2023-03-23T21:14:18.941Z,38.19
2023-03-23T21:16:47.386Z,38.40
2023-03-23T21:19:17.155Z,38.54
2023-03-23T21:21:55.332Z,38.64
2023-03-23T21:24:28.197Z,38.54
2023-03-23T21:26:59.517Z,38.56
2023-03-23T21:29:33.567Z,38.46
2023-03-23T21:32:08.290Z,38.18
2023-03-23T21:34:39.411Z,38.32
2023-03-23T21:37:07.995Z,38.39
2023-03-23T21:39:41.727Z,38.27
2023-03-23T21:42:13.623Z,38.45
2023-03-23T21:44:43.454Z,38.39
2023-03-23T21:47:12.783Z,38.31
2023-03-23T21:49:45.976Z,38.49
2023-03-23T21:52:14.286Z,38.61
2023-03-23T21:54:45.654Z,38.64
2023-03-23T21:57:13.951Z,38.69
2023-03-23T21:59:42.252Z,38.88
2023-03-23T22:02:14.089Z,39.01
2023-03-23T22:04:44.008Z,39.19
2023-03-23T22:07:12.852Z,38.97
2023-03-23T22:09:45.261Z,39.17
2023-03-23T22:12:14.185Z,39.17
2023-03-23T22:14:42.759Z,39.55
2023-03-23T22:17:11.821Z,39.40
2023-03-23T22:19:40.480Z,39.61
2023-03-23T22:22:10.551Z,39.52
2023-03-23T22:24:38.970Z,39.45
2023-03-23T22:27:07.762Z,39.77
2023-03-23T22:29:36.147Z,39.79
2023-03-23T22:32:04.818Z,39.89
2023-03-23T22:34:38.481Z,39.89
2023-03-23T22:37:08.364Z,40.04
2023-03-23T22:39:38.780Z,40.14
2023-03-23T22:42:07.330Z,40.03
2023-03-23T22:44:36.436Z,40.11
2023-03-23T22:47:04.936Z,39.94
2023-03-23T22:49:33.762Z,39.95
2023-03-23T22:52:02.181Z,40.28
2023-03-23T22:54:33.430Z,40.13
2023-03-23T22:57:03.275Z,40.17
2023-03-23T22:59:31.728Z,40.53
2023-03-23T23:02:00.139Z,40.50
2023-03-23T23:04:34.482Z,40.39
2023-03-23T23:07:12.539Z,40.32
2023-03-23T23:09:42.306Z,40.51
2023-03-23T23:12:17.292Z,40.66
2023-03-23T23:14:46.342Z,41.01
2023-03-23T23:17:17.564Z,40.91
2023-03-23T23:19:46.458Z,40.87
2023-03-23T23:22:19.380Z,41.01
2023-03-23T23:24:48.067Z,41.24
2023-03-23T23:27:18.079Z,41.43
2023-03-23T23:29:49.289Z,41.55
2023-03-23T23:32:20.701Z,41.56
2023-03-23T23:34:49.106Z,41.52
2023-03-23T23:37:17.639Z,41.53
2023-03-23T23:39:46.228Z,41.67
2023-03-23T23:42:14.680Z,41.66
2023-03-23T23:44:46.411Z,41.93
2023-03-23T23:47:15.410Z,41.89
2023-03-23T23:49:46.737Z,41.92
2023-03-23T23:52:15.659Z,41.95
2023-03-23T23:54:47.233Z,41.97
2023-03-23T23:57:16.816Z,42.01
2023-03-23T23:59:51.473Z,41.83
